Arthur, Illinois
Current Conditions -  °F | °C
As of 8:53 AM on Friday 24 Oct 2014 (Local Time) from KMTO Reporting Station
Overcast Overcast  
Wind Chill: 54°   Ceiling: 6500
Heat Index: 54°   Visibility: 10mi
Dew Point: 47°   Wind: 5mph
Humidity: 77%   Direction: 250°WSW
Pressure: 30.1"   Gusts: NA
Location:  39.71°N, 88.47°W
Report Text: KMTO 241353Z AUTO 25004KT 10SM OVC065 12/08 A3010 RMK AO2 SLP192 T01220083
Loading
Personal Weather Stations






























Interactive Weather Map
Tropical Storm Tracking
New forecast layout! Learn more

10-Day Weather Forecast

Advertisements
Track Severe Weather on mobile